Time;durP1;ratioP1;P1;durP2;ratioP2;P2;SDS_P1;SDS_P2;PMS_P1;PMS_P2;Temp;Humidity;BMP_temperature;BMP_pressure;BME280_temperature;BME280_humidity;BME280_pressure;Samples;Min_cycle;Max_cycle;Signal;HPM_P1;HPM_P2
2021/01/16 00:04:11;;;;;;;14.95;11.93;;;;;;;2.45;61.24;101329.47;10522178;28;20196;-67
2021/01/16 00:09:12;;;;;;;13.48;11.32;;;;;;;2.37;61.98;101336.72;10520282;28;20040;-69
2021/01/16 00:14:13;;;;;;;17.50;12.20;;;;;;;2.69;61.03;101327.03;10524330;28;20298;-69
2021/01/16 00:19:15;;;;;;;15.95;12.07;;;;;;;2.94;60.05;101334.13;10524421;28;20044;-69
2021/01/16 00:24:16;;;;;;;14.45;11.65;;;;;;;2.65;60.94;101338.53;10534445;28;20048;-69
2021/01/16 00:29:17;;;;;;;15.43;12.32;;;;;;;2.82;60.38;101328.38;10529222;28;20058;-69
2021/01/16 00:34:18;;;;;;;17.20;12.65;;;;;;;2.53;60.86;101326.63;10533950;28;20045;-68
2021/01/16 00:39:20;;;;;;;17.27;14.63;;;;;;;2.55;61.48;101330.06;10554162;28;20052;-68
2021/01/16 00:44:21;;;;;;;16.60;13.27;;;;;;;2.62;61.37;101336.00;10527221;28;20130;-68
2021/01/16 00:49:22;;;;;;;16.60;13.40;;;;;;;2.79;60.59;101320.56;10532144;28;20109;-69
2021/01/16 00:54:23;;;;;;;18.85;14.00;;;;;;;2.53;61.47;101321.34;10535954;28;20055;-69
2021/01/16 00:59:25;;;;;;;15.70;13.90;;;;;;;2.68;60.93;101319.19;10517570;28;20549;-69
2021/01/16 01:04:26;;;;;;;15.05;13.25;;;;;;;2.39;61.53;101313.03;10539958;28;20456;-68
2021/01/16 01:09:28;;;;;;;14.93;13.23;;;;;;;2.67;61.10;101306.94;10547214;28;20055;-69
2021/01/16 01:14:29;;;;;;;14.98;13.00;;;;;;;2.77;60.76;101314.47;10522323;28;20058;-68
2021/01/16 01:19:30;;;;;;;16.65;12.73;;;;;;;2.73;61.03;101309.38;10520860;28;20051;-69
2021/01/16 01:24:31;;;;;;;16.77;13.18;;;;;;;2.43;61.73;101314.66;10525132;28;20048;-68
2021/01/16 01:29:33;;;;;;;14.57;12.75;;;;;;;2.67;60.46;101322.72;10521896;28;20408;-69
2021/01/16 01:34:35;;;;;;;16.52;12.13;;;;;;;2.70;60.38;101325.25;10519746;28;20550;-69
2021/01/16 01:39:36;;;;;;;14.25;12.48;;;;;;;2.71;60.49;101325.19;10529340;28;20059;-69
2021/01/16 01:44:38;;;;;;;15.82;13.93;;;;;;;2.82;59.99;101328.38;10525085;28;20060;-68
2021/01/16 01:49:41;;;;;;;15.35;12.15;;;;;;;2.87;60.25;101332.59;10527508;28;20059;-69
2021/01/16 01:54:45;;;;;;;15.05;12.52;;;;;;;2.89;60.00;101334.28;10547135;28;20135;-68
2021/01/16 01:59:48;;;;;;;14.60;12.68;;;;;;;2.87;60.48;101327.34;10523478;28;20055;-68
2021/01/16 02:04:51;;;;;;;15.38;12.55;;;;;;;2.93;60.46;101332.44;10526280;28;20489;-68
2021/01/16 02:09:53;;;;;;;13.80;11.32;;;;;;;2.90;60.46;101324.63;10538531;28;20153;-68
2021/01/16 02:15:25;;;;;;;13.05;11.13;;;;;;;2.86;59.84;101328.28;10529093;28;20502;-67
2021/01/16 02:20:31;;;;;;;11.20;9.63;;;;;;;2.74;59.76;101332.13;10504063;28;20047;-70
2021/01/16 02:25:43;;;;;;;13.23;10.73;;;;;;;2.67;59.17;101333.22;10530096;28;20108;-69
2021/01/16 02:30:46;;;;;;;12.93;10.38;;;;;;;2.43;59.43;101328.66;10530796;28;20043;-69
2021/01/16 02:35:56;;;;;;;11.48;9.48;;;;;;;2.27;59.35;101315.09;10536104;28;20493;-68
2021/01/16 02:41:03;;;;;;;11.32;9.18;;;;;;;2.40;58.81;101327.88;10529760;28;20537;-69
2021/01/16 02:46:25;;;;;;;10.52;9.13;;;;;;;2.42;58.19;101324.31;10554905;28;20043;-69
2021/01/16 02:51:38;;;;;;;10.68;9.45;;;;;;;2.50;58.18;101331.97;10553633;28;20563;-68
2021/01/16 02:56:40;;;;;;;12.07;8.57;;;;;;;2.48;57.61;101329.38;10528493;28;20121;-68
2021/01/16 03:01:42;;;;;;;10.10;8.38;;;;;;;2.41;57.01;101329.59;10525811;28;20064;-69
2021/01/16 03:06:50;;;;;;;10.93;8.18;;;;;;;2.36;56.90;101319.25;10552482;28;20134;-69
2021/01/16 03:11:52;;;;;;;9.13;7.95;;;;;;;2.41;56.37;101327.84;10526052;28;20117;-70
2021/01/16 03:17:15;;;;;;;8.85;7.47;;;;;;;2.37;55.98;101315.72;10529839;28;20047;-69
2021/01/16 03:22:18;;;;;;;8.60;7.22;;;;;;;2.37;55.46;101315.72;10529991;28;20054;-69
2021/01/16 03:27:21;;;;;;;8.38;7.50;;;;;;;2.30;55.32;101312.38;10546490;28;20135;-69
2021/01/16 03:32:22;;;;;;;8.77;7.00;;;;;;;2.21;55.15;101309.19;10551382;28;20040;-69
2021/01/16 03:37:23;;;;;;;8.35;6.88;;;;;;;2.16;55.30;101316.31;10556296;28;20047;-69
2021/01/16 03:42:24;;;;;;;9.27;7.75;;;;;;;2.06;55.90;101316.56;10535414;28;20051;-70
2021/01/16 03:47:26;;;;;;;8.98;7.38;;;;;;;2.01;55.65;101323.75;10534937;28;20406;-69
2021/01/16 03:52:29;;;;;;;9.10;7.30;;;;;;;2.03;56.14;101337.69;10535524;28;20055;-69
2021/01/16 03:57:31;;;;;;;8.35;7.13;;;;;;;2.01;55.89;101318.50;10533499;28;20051;-68
2021/01/16 04:02:32;;;;;;;8.73;7.38;;;;;;;2.05;55.71;101320.09;10534464;28;20064;-67
2021/01/16 04:07:35;;;;;;;6.80;6.10;;;;;;;2.09;55.68;101320.91;10529727;28;20055;-69
2021/01/16 04:12:37;;;;;;;9.23;7.28;;;;;;;2.10;55.83;101319.97;10532826;28;20071;-70
2021/01/16 04:17:38;;;;;;;9.75;7.68;;;;;;;2.06;55.80;101320.97;10545738;28;20502;-68
2021/01/16 04:22:40;;;;;;;7.63;6.43;;;;;;;2.09;56.64;101323.53;10540392;28;20150;-70
2021/01/16 04:27:41;;;;;;;8.18;6.72;;;;;;;2.12;56.06;101336.56;10535524;28;20471;-70
2021/01/16 04:32:42;;;;;;;10.35;8.00;;;;;;;2.04;56.06;101328.03;10527530;28;20497;-70
2021/01/16 04:37:44;;;;;;;9.35;8.10;;;;;;;2.07;56.07;101338.44;10550609;28;20570;-71
2021/01/16 04:42:47;;;;;;;10.05;7.65;;;;;;;2.09;56.80;101327.00;10528427;28;20187;-70
2021/01/16 04:47:50;;;;;;;10.60;7.43;;;;;;;2.06;56.38;101337.59;10525304;28;20051;-69
2021/01/16 04:52:57;;;;;;;9.98;7.53;;;;;;;1.94;56.97;101337.94;10534433;28;20417;-69
2021/01/16 04:58:09;;;;;;;9.52;7.57;;;;;;;1.75;58.12;101338.41;10533670;28;20590;-70
2021/01/16 05:03:12;;;;;;;9.60;8.02;;;;;;;1.94;57.67;101338.78;10547495;28;20055;-70
2021/01/16 05:08:13;;;;;;;9.00;7.38;;;;;;;2.09;57.61;101334.88;10516624;28;20410;-71
2021/01/16 05:13:17;;;;;;;9.52;8.10;;;;;;;1.96;58.08;101336.13;10509901;28;20047;-71
2021/01/16 05:18:20;;;;;;;11.07;9.27;;;;;;;1.90;57.54;101325.78;10536703;28;20079;-71
2021/01/16 05:23:21;;;;;;;10.25;7.47;;;;;;;2.01;57.52;101325.47;10526165;28;20051;-70
2021/01/16 05:28:24;;;;;;;10.52;8.05;;;;;;;1.91;57.29;101327.50;10524580;28;20035;-70
2021/01/16 05:33:34;;;;;;;10.95;8.07;;;;;;;2.05;56.81;101335.00;10523421;28;20059;-71
2021/01/16 05:38:39;;;;;;;12.60;8.85;;;;;;;2.10;55.97;101323.47;10548739;28;20577;-71
2021/01/16 05:43:42;;;;;;;9.38;8.38;;;;;;;2.07;56.19;101322.69;10523350;28;21294;-71
2021/01/16 05:48:54;;;;;;;10.57;7.90;;;;;;;2.19;56.04;101324.09;10532924;28;20051;-70
2021/01/16 05:53:57;;;;;;;10.35;8.60;;;;;;;2.15;55.76;101314.59;10532047;28;20432;-70
2021/01/16 05:58:59;;;;;;;10.88;8.65;;;;;;;1.96;55.57;101312.47;10531301;28;20052;-70
2021/01/16 06:04:03;;;;;;;9.48;8.13;;;;;;;2.11;55.53;101308.56;10531997;28;20077;-68
2021/01/16 06:09:04;;;;;;;10.07;8.45;;;;;;;2.19;54.58;101297.84;10552256;28;20358;-71
2021/01/16 06:14:09;;;;;;;8.65;7.03;;;;;;;2.22;53.72;101297.75;10530065;28;20092;-72
2021/01/16 06:19:10;;;;;;;9.35;7.38;;;;;;;2.19;53.18;101284.69;10528827;28;20059;-69
2021/01/16 06:24:18;;;;;;;8.77;7.43;;;;;;;2.05;53.32;101292.97;10532024;28;20047;-70
2021/01/16 06:29:35;;;;;;;12.32;7.80;;;;;;;2.08;53.34;101287.66;10550017;28;20059;-70
2021/01/16 06:34:42;;;;;;;7.97;6.57;;;;;;;2.18;53.18;101299.63;10532357;28;20101;-68
2021/01/16 06:39:45;;;;;;;9.30;7.53;;;;;;;2.15;52.77;101304.06;10536483;28;20043;-72
2021/01/16 06:44:47;;;;;;;9.13;6.68;;;;;;;2.15;52.77;101306.69;10549140;28;20063;-71
2021/01/16 06:49:58;;;;;;;7.93;6.35;;;;;;;2.15;52.84;101304.06;10541753;28;20055;-70
2021/01/16 06:55:00;;;;;;;7.43;5.68;;;;;;;2.21;52.30;101304.78;10516425;28;20036;-70
2021/01/16 07:00:09;;;;;;;9.55;7.40;;;;;;;2.17;51.99;101318.91;10532037;28;20090;-69
2021/01/16 07:05:11;;;;;;;9.20;6.60;;;;;;;2.14;52.19;101323.38;10523187;28;20048;-70
2021/01/16 07:10:17;;;;;;;9.93;7.07;;;;;;;2.20;53.18;101312.69;10512341;28;20055;-70
2021/01/16 07:15:20;;;;;;;7.57;6.78;;;;;;;2.23;52.22;101316.09;10535267;28;20044;-68
2021/01/16 07:20:23;;;;;;;8.52;6.97;;;;;;;2.21;51.36;101327.56;10524260;28;20221;-68
2021/01/16 07:25:25;;;;;;;6.90;5.82;;;;;;;2.12;51.14;101321.66;10523583;28;20043;-68
2021/01/16 07:30:29;;;;;;;8.25;6.47;;;;;;;2.18;50.64;101315.38;10538867;28;20055;-68
2021/01/16 07:35:33;;;;;;;7.43;6.60;;;;;;;2.12;50.82;101316.41;10536069;28;20128;-70
2021/01/16 07:40:43;;;;;;;7.17;5.37;;;;;;;2.17;51.46;101310.16;10538095;28;20063;-70
2021/01/16 07:45:49;;;;;;;6.38;5.28;;;;;;;2.16;50.58;101308.44;10505901;28;20503;-69
2021/01/16 07:50:52;;;;;;;5.15;3.88;;;;;;;2.17;48.60;101307.53;10523014;28;20162;-70
2021/01/16 07:56:04;;;;;;;4.47;3.50;;;;;;;2.15;47.70;101298.81;10524754;28;20051;-70
2021/01/16 08:01:16;;;;;;;4.93;4.10;;;;;;;2.08;48.59;101299.00;10523293;28;20134;-69
2021/01/16 08:06:25;;;;;;;5.68;4.38;;;;;;;2.17;47.98;101297.88;10539576;28;20105;-71
2021/01/16 08:11:36;;;;;;;4.93;3.53;;;;;;;2.19;47.41;101289.94;10544668;28;20039;-68
2021/01/16 08:16:41;;;;;;;4.50;4.03;;;;;;;2.10;47.65;101281.44;10543200;28;20040;-70
2021/01/16 08:21:59;;;;;;;;;;;;;;;2.02;47.38;101275.53;10544595;28;20055;-69
2021/01/16 08:27:03;;;;;;;4.68;3.35;;;;;;;1.94;46.88;101273.13;10541488;28;20036;-69
2021/01/16 08:32:10;;;;;;;4.88;3.35;;;;;;;2.00;47.34;101268.59;10543401;28;20055;-70
2021/01/16 08:37:11;;;;;;;4.25;3.40;;;;;;;2.04;47.78;101264.97;10541993;28;20067;-70
2021/01/16 08:42:16;;;;;;;4.30;3.67;;;;;;;2.16;46.97;101279.53;10540329;28;20160;-68
2021/01/16 08:47:23;;;;;;;4.53;3.58;;;;;;;2.28;47.40;101289.69;10539754;28;20051;-67
2021/01/16 08:52:33;;;;;;;;;;;;;;;2.05;48.27;101288.59;10508772;28;20145;-68
2021/01/16 08:57:38;;;;;;;5.50;3.70;;;;;;;2.26;48.34;101286.25;10541076;28;19965;-68
2021/01/16 09:03:23;;;;;;;4.53;3.35;;;;;;;2.29;47.04;101294.88;10538501;28;20040;-67
2021/01/16 09:08:28;;;;;;;4.63;3.33;;;;;;;2.22;47.33;101295.13;10538578;28;20081;-66
2021/01/16 09:13:31;;;;;;;4.75;3.53;;;;;;;2.39;47.06;101295.50;10542167;28;20040;-69
2021/01/16 09:18:33;;;;;;;4.65;3.92;;;;;;;2.60;46.61;101301.03;10540429;28;20051;-69
2021/01/16 09:23:38;;;;;;;4.70;3.05;;;;;;;2.35;45.29;101296.47;10539888;28;20048;-68
2021/01/16 09:28:50;;;;;;;15.65;14.30;;;;;;;2.29;45.94;101291.41;10521101;28;20122;-67
2021/01/16 09:33:55;;;;;;;7.38;5.90;;;;;;;2.33;46.25;101287.78;10525826;28;20483;-66
2021/01/16 09:39:02;;;;;;;6.32;3.63;;;;;;;2.16;46.17;101280.38;10536191;28;20521;-68
2021/01/16 09:44:05;;;;;;;6.07;5.37;;;;;;;2.18;45.47;101272.47;10521502;28;20043;-68
2021/01/16 09:49:09;;;;;;;14.10;10.15;;;;;;;2.41;45.99;101280.53;10521081;28;20043;-70
2021/01/16 09:54:16;;;;;;;5.43;4.60;;;;;;;2.41;46.38;101283.16;10538287;28;21436;-68
2021/01/16 09:59:23;;;;;;;46.63;31.65;;;;;;;2.59;45.06;101268.59;10373797;28;4188598;-67
2021/01/16 10:04:27;;;;;;;38.45;26.25;;;;;;;2.64;44.67;101255.31;10540295;28;20043;-69
2021/01/16 10:09:41;;;;;;;5.93;5.13;;;;;;;2.51;44.84;101238.19;10522163;28;20167;-68
2021/01/16 10:14:47;;;;;;;4.28;3.75;;;;;;;2.61;45.06;101239.63;10539518;28;20127;-69
2021/01/16 10:19:49;;;;;;;6.30;4.45;;;;;;;2.61;45.54;101226.47;10541588;28;20104;-70
2021/01/16 10:24:53;;;;;;;5.07;4.38;;;;;;;2.62;45.21;101215.91;10539982;28;20079;-68
2021/01/16 10:29:55;;;;;;;4.67;4.23;;;;;;;2.61;45.72;101219.47;10534845;28;20083;-68
2021/01/16 10:34:59;;;;;;;4.80;4.28;;;;;;;2.67;44.77;101217.53;10510997;22;20068;-67
2021/01/16 10:40:04;;;;;;;5.68;5.05;;;;;;;2.74;45.84;101216.44;10442376;28;20210;-69
2021/01/16 10:45:06;;;;;;;5.80;4.10;;;;;;;2.62;44.89;101212.44;10450332;28;20047;-68
2021/01/16 10:50:15;;;;;;;6.75;5.05;;;;;;;2.37;45.65;101200.09;10459601;28;20453;-67
2021/01/16 10:55:20;;;;;;;9.95;9.05;;;;;;;2.32;45.71;101194.09;10446677;28;20064;-66
2021/01/16 11:00:21;;;;;;;5.15;4.40;;;;;;;2.31;45.44;101184.47;10464340;28;20056;-69
2021/01/16 11:05:25;;;;;;;129.13;116.50;;;;;;;2.27;45.69;101175.84;10459957;28;20178;-67
2021/01/16 11:10:30;;;;;;;12.87;11.50;;;;;;;2.33;45.79;101166.03;10448606;28;20183;-67
2021/01/16 11:15:31;;;;;;;29.75;26.80;;;;;;;2.47;45.24;101159.44;10469422;28;20294;-66
2021/01/16 11:20:34;;;;;;;61.17;54.60;;;;;;;2.54;45.21;101160.13;10469296;28;20121;-66
2021/01/16 11:25:44;;;;;;;56.17;50.22;;;;;;;2.43;46.30;101163.09;10466214;28;20044;-66
2021/01/16 11:30:46;;;;;;;7.13;6.43;;;;;;;2.37;45.70;101155.41;10469341;28;20327;-67
2021/01/16 11:35:54;;;;;;;8.82;6.05;;;;;;;2.38;45.79;101135.25;10496569;28;20109;-66
2021/01/16 11:40:56;;;;;;;6.95;5.85;;;;;;;1.94;45.90;101094.56;10463467;28;20617;-67
2021/01/16 11:46:11;;;;;;;6.97;5.60;;;;;;;2.28;45.88;101145.16;10459560;28;20048;-66
2021/01/16 11:51:17;;;;;;;7.93;5.82;;;;;;;1.95;46.32;101129.56;10447898;28;20048;-66
2021/01/16 11:56:21;;;;;;;8.73;7.20;;;;;;;2.07;46.09;101139.72;10447503;28;20044;-67
2021/01/16 12:01:22;;;;;;;6.15;5.50;;;;;;;1.87;47.29;101118.44;10445678;28;20218;-68
2021/01/16 12:06:26;;;;;;;8.98;7.68;;;;;;;2.02;47.15;101125.84;10443640;28;20425;-67
2021/01/16 12:11:28;;;;;;;8.07;6.30;;;;;;;2.07;46.90;101105.56;10462837;28;20503;-67
2021/01/16 12:16:35;;;;;;;8.88;7.43;;;;;;;2.26;47.01;101086.56;10464202;28;20107;-67
2021/01/16 12:21:38;;;;;;;7.50;6.65;;;;;;;2.35;46.23;101096.78;10463055;28;20121;-66
2021/01/16 12:26:47;;;;;;;7.78;6.43;;;;;;;1.94;47.54;101080.59;10462303;28;20072;-68
2021/01/16 12:32:03;;;;;;;9.02;6.85;;;;;;;2.19;47.33;101077.16;10464724;28;20045;-67
2021/01/16 12:37:04;;;;;;;9.32;6.75;;;;;;;2.20;47.56;101056.09;10465419;28;20125;-68
2021/01/16 12:42:06;;;;;;;8.55;6.90;;;;;;;2.42;46.54;101037.84;10463906;28;20076;-69
2021/01/16 12:47:15;;;;;;;10.13;7.82;;;;;;;2.60;46.30;101027.63;10460452;28;20132;-68
2021/01/16 12:52:25;;;;;;;10.50;8.63;;;;;;;2.72;46.49;101048.22;10458188;28;20223;-68
2021/01/16 12:57:38;;;;;;;8.10;6.88;;;;;;;2.35;46.28;101041.59;10441983;28;20135;-68
2021/01/16 13:02:39;;;;;;;10.77;8.13;;;;;;;1.99;47.54;101044.53;10461496;28;20066;-68
2021/01/16 13:07:41;;;;;;;9.18;7.88;;;;;;;1.89;47.91;101040.47;10458957;28;20058;-67
2021/01/16 13:12:44;;;;;;;8.98;7.75;;;;;;;1.97;48.44;101019.22;10459618;28;20068;-68
2021/01/16 13:17:57;;;;;;;8.57;7.25;;;;;;;2.04;48.59;101004.97;10449402;28;20044;-67
2021/01/16 13:22:58;;;;;;;10.40;7.45;;;;;;;2.15;48.26;101000.25;10442376;28;20140;-67
2021/01/16 13:28:04;;;;;;;8.25;7.00;;;;;;;2.20;48.16;101000.09;10459279;28;20068;-68
2021/01/16 13:33:06;;;;;;;9.82;7.57;;;;;;;2.18;48.63;101000.13;10463707;28;20053;-68
2021/01/16 13:38:08;;;;;;;9.75;8.45;;;;;;;2.21;48.56;100999.19;10467804;28;20097;-67
2021/01/16 13:43:19;;;;;;;10.40;6.65;;;;;;;2.16;47.95;101001.09;10458427;28;20564;-67
2021/01/16 13:48:21;;;;;;;9.65;7.30;;;;;;;2.07;48.48;100999.63;10460341;28;20103;-67
2021/01/16 13:53:27;;;;;;;8.40;6.63;;;;;;;2.08;47.96;100989.06;10441607;28;20119;-67
2021/01/16 13:58:29;;;;;;;9.98;7.00;;;;;;;2.17;48.16;100990.53;10458993;28;20998;-68
2021/01/16 14:03:32;;;;;;;8.10;6.97;;;;;;;2.16;50.23;100974.81;10458246;28;20558;-68
2021/01/16 14:08:34;;;;;;;9.80;6.35;;;;;;;2.33;48.52;100979.50;10459484;28;20044;-68
2021/01/16 14:13:36;;;;;;;11.27;6.97;;;;;;;2.37;48.02;100981.97;10443075;28;20097;-68
2021/01/16 14:18:41;;;;;;;7.85;6.80;;;;;;;2.30;47.41;100951.56;10460376;28;20048;-67
2021/01/16 14:23:43;;;;;;;8.45;7.47;;;;;;;2.33;47.87;100964.59;10459586;28;20094;-67
2021/01/16 14:28:47;;;;;;;7.97;6.50;;;;;;;2.16;48.44;100949.41;10470030;28;20497;-68
2021/01/16 14:34:01;;;;;;;9.88;6.47;;;;;;;2.17;48.17;100961.63;10466411;28;20052;-67
2021/01/16 14:39:10;;;;;;;6.75;6.05;;;;;;;2.01;47.98;100957.81;10467892;28;20135;-66
2021/01/16 14:44:14;;;;;;;8.32;6.72;;;;;;;1.71;48.54;100942.16;10467250;28;20127;-66
2021/01/16 14:49:22;;;;;;;11.02;6.88;;;;;;;1.64;49.43;100938.88;10449864;28;20276;-67
2021/01/16 14:54:23;;;;;;;7.88;6.97;;;;;;;1.64;49.70;100938.03;10470135;28;20160;-65
2021/01/16 14:59:24;;;;;;;10.02;7.85;;;;;;;1.72;49.98;100944.72;10474882;28;20102;-66
2021/01/16 15:04:25;;;;;;;9.18;7.65;;;;;;;1.76;49.98;100929.75;10485497;28;20420;-66
2021/01/16 15:09:35;;;;;;;10.85;7.93;;;;;;;1.67;50.71;100912.53;10476094;28;20616;-66
2021/01/16 15:14:38;;;;;;;7.93;6.47;;;;;;;1.85;50.64;100915.47;10471248;28;20074;-66
2021/01/16 15:19:39;;;;;;;9.40;7.82;;;;;;;1.57;50.73;100908.50;10451054;28;20140;-67
2021/01/16 15:24:41;;;;;;;9.43;6.90;;;;;;;1.49;50.87;100906.13;10455430;28;20774;-67
2021/01/16 15:29:42;;;;;;;9.32;7.20;;;;;;;1.49;50.64;100889.53;10467987;28;20072;-65
2021/01/16 15:34:43;;;;;;;9.40;6.82;;;;;;;1.46;50.98;100894.88;10468347;28;20072;-67
2021/01/16 15:39:47;;;;;;;8.05;7.25;;;;;;;1.53;51.17;100891.13;10490404;28;20685;-65
2021/01/16 15:45:00;;;;;;;8.63;6.63;;;;;;;1.27;50.24;100874.47;10469192;28;20068;-66
2021/01/16 15:50:02;;;;;;;7.18;6.20;;;;;;;1.44;50.79;100880.94;10477594;28;20032;-66
2021/01/16 15:55:13;;;;;;;11.90;7.70;;;;;;;1.46;50.24;100884.41;10473645;28;20052;-66
2021/01/16 16:00:24;;;;;;;8.48;6.88;;;;;;;1.45;51.08;100874.78;10447750;28;20124;-66
2021/01/16 16:05:25;;;;;;;7.63;6.45;;;;;;;1.46;50.77;100866.03;10462485;28;20064;-66
2021/01/16 16:10:26;;;;;;;8.43;7.25;;;;;;;1.35;50.28;100848.88;10462475;28;20546;-66
2021/01/16 16:15:29;;;;;;;8.32;6.53;;;;;;;1.46;50.03;100850.28;10463009;28;20060;-66
2021/01/16 16:20:30;;;;;;;10.40;8.07;;;;;;;1.42;50.09;100845.09;10461820;28;20083;-66
2021/01/16 16:25:32;;;;;;;9.70;6.63;;;;;;;1.27;50.74;100836.91;10461525;28;20049;-67
2021/01/16 16:30:33;;;;;;;9.13;6.35;;;;;;;1.41;50.99;100832.91;10444622;28;20135;-66
2021/01/16 16:35:35;;;;;;;10.60;7.78;;;;;;;1.42;50.63;100826.75;10464326;22;20610;-76
2021/01/16 16:40:40;;;;;;;8.77;6.78;;;;;;;1.37;50.41;100809.47;10499955;28;20075;-76
2021/01/16 16:45:44;;;;;;;10.27;9.23;;;;;;;1.41;50.53;100814.56;10501314;28;20076;-72
2021/01/16 16:50:45;;;;;;;12.38;11.10;;;;;;;1.22;50.75;100795.09;10500224;28;20542;-76
2021/01/16 16:55:47;;;;;;;11.13;10.02;;;;;;;1.23;51.26;100794.16;10481818;28;20107;-75
2021/01/16 17:00:51;;;;;;;234.75;186.68;;;;;;;1.03;51.22;100782.56;10499950;28;20105;-72
2021/01/16 17:05:52;;;;;;;10.77;9.67;;;;;;;1.00;51.30;100777.41;10500127;28;20055;-72
2021/01/16 17:10:54;;;;;;;9.93;8.13;;;;;;;1.01;51.41;100784.38;10469223;28;20068;-74
2021/01/16 17:15:55;;;;;;;8.35;7.28;;;;;;;0.93;52.46;100768.06;10487922;28;21710;-71
2021/01/16 17:20:56;;;;;;;15.52;13.23;;;;;;;0.85;52.72;100762.19;10496051;28;20068;-71
2021/01/16 17:25:57;;;;;;;11.90;10.80;;;;;;;0.78;52.16;100740.56;10495096;28;20052;-72
2021/01/16 17:30:58;;;;;;;9.73;8.23;;;;;;;0.80;52.92;100745.78;10474205;28;20139;-72
2021/01/16 17:36:00;;;;;;;9.57;7.00;;;;;;;0.79;52.36;100725.69;10476684;28;20050;-72
2021/01/16 17:41:01;;;;;;;8.85;7.28;;;;;;;0.71;52.86;100723.34;10492252;28;20489;-70
2021/01/16 17:46:03;;;;;;;9.65;7.75;;;;;;;0.87;53.27;100718.44;10479024;28;20059;-73
2021/01/16 17:51:05;;;;;;;11.50;8.70;;;;;;;0.88;52.43;100710.50;10467815;28;20055;-74
2021/01/16 17:56:06;;;;;;;10.15;9.07;;;;;;;0.85;52.50;100709.78;10488732;28;20048;-71
2021/01/16 18:01:07;;;;;;;10.52;8.70;;;;;;;0.73;52.64;100715.41;10489684;28;20121;-71
2021/01/16 18:06:09;;;;;;;10.02;8.20;;;;;;;0.66;53.08;100710.38;10473664;28;20062;-71
2021/01/16 18:11:10;;;;;;;8.70;7.00;;;;;;;0.67;53.56;100704.22;10490537;28;20055;-72
2021/01/16 18:16:12;;;;;;;9.35;7.13;;;;;;;0.70;53.56;100714.59;10471075;28;20117;-75
2021/01/16 18:21:13;;;;;;;9.25;7.45;;;;;;;0.66;53.68;100699.91;10470934;28;20135;-72
2021/01/16 18:26:15;;;;;;;9.55;7.60;;;;;;;0.67;53.53;100701.59;10464706;28;20202;-71
2021/01/16 18:31:16;;;;;;;16.40;15.00;;;;;;;0.59;53.98;100702.78;10474440;28;20085;-73
2021/01/16 18:36:18;;;;;;;16.38;14.80;;;;;;;0.67;54.42;100691.09;10496733;28;20084;-74
2021/01/16 18:41:21;;;;;;;9.57;8.07;;;;;;;0.74;53.72;100696.19;10495966;28;20631;-70
2021/01/16 18:46:33;;;;;;;9.90;8.50;;;;;;;0.50;54.58;100689.03;10471995;28;20051;-71
2021/01/16 18:51:38;;;;;;;8.23;7.28;;;;;;;0.46;54.97;100686.56;10488356;28;20573;-73
2021/01/16 18:56:42;;;;;;;9.15;7.88;;;;;;;0.41;55.36;100671.00;10482718;28;20590;-72
2021/01/16 19:01:44;;;;;;;9.13;7.88;;;;;;;0.45;55.65;100671.75;10489131;28;20117;-72
2021/01/16 19:06:46;;;;;;;10.50;9.20;;;;;;;0.41;56.33;100663.16;10474081;28;20131;-72
2021/01/16 19:11:48;;;;;;;14.70;9.75;;;;;;;0.56;57.66;100664.41;10481728;28;20050;-70
2021/01/16 19:16:52;;;;;;;13.48;10.82;;;;;;;0.59;57.13;100651.22;10493847;28;20101;-76
2021/01/16 19:21:57;;;;;;;17.80;15.60;;;;;;;0.42;58.53;100656.13;10496244;28;20047;-72
2021/01/16 19:26:59;;;;;;;15.68;14.07;;;;;;;0.40;58.87;100623.91;10501931;28;20048;-75
2021/01/16 19:32:00;;;;;;;24.48;20.27;;;;;;;0.55;58.81;100639.13;10478966;28;20040;-76
2021/01/16 19:37:01;;;;;;;19.35;17.30;;;;;;;0.49;60.62;100639.31;10496721;28;20059;-72
2021/01/16 19:42:03;;;;;;;21.13;17.40;;;;;;;0.40;62.41;100640.47;10476098;28;20139;-73
2021/01/16 19:47:04;;;;;;;20.50;17.60;;;;;;;0.45;62.12;100612.38;10474792;28;22306;-73
2021/01/16 19:52:06;;;;;;;21.08;17.48;;;;;;;0.53;63.03;100617.38;10486335;28;20078;-73
2021/01/16 19:57:07;;;;;;;25.58;19.77;;;;;;;0.51;63.97;100600.81;10494946;28;20048;-72
2021/01/16 20:02:12;;;;;;;26.98;21.23;;;;;;;0.57;64.42;100600.66;10475385;28;20743;-72
2021/01/16 20:07:13;;;;;;;24.83;19.83;;;;;;;0.56;64.99;100588.44;10494244;28;20051;-72
2021/01/16 20:12:14;;;;;;;27.85;19.70;;;;;;;0.49;65.38;100586.94;10479874;28;20067;-72
2021/01/16 20:17:19;;;;;;;23.75;19.05;;;;;;;0.43;65.90;100587.97;10494274;28;20498;-74
2021/01/16 20:22:20;;;;;;;25.58;19.90;;;;;;;0.35;66.58;100583.00;10495962;28;20048;-74
2021/01/16 20:27:21;;;;;;;26.23;19.85;;;;;;;0.31;66.90;100573.53;10491978;28;20055;-74
2021/01/16 20:32:24;;;;;;;34.03;27.38;;;;;;;0.45;66.31;100580.06;10503953;28;20070;-72
2021/01/16 20:37:25;;;;;;;31.58;24.88;;;;;;;0.29;66.99;100559.63;10473398;28;20040;-74
2021/01/16 20:42:27;;;;;;;31.58;24.65;;;;;;;0.19;67.78;100573.94;10472727;28;20056;-75
2021/01/16 20:47:28;;;;;;;27.30;23.70;;;;;;;0.14;67.92;100578.47;10472591;28;20048;-73
2021/01/16 20:52:30;;;;;;;29.13;25.05;;;;;;;0.28;67.35;100564.91;10480765;28;20178;-75
2021/01/16 20:57:31;;;;;;;28.20;20.38;;;;;;;0.24;67.13;100561.56;10475076;28;20624;-74
2021/01/16 21:02:37;;;;;;;30.35;24.77;;;;;;;0.23;68.25;100569.47;10481722;28;20040;-72
2021/01/16 21:07:44;;;;;;;30.40;22.92;;;;;;;0.12;68.31;100582.88;10442222;28;20631;-76
2021/01/16 21:12:54;;;;;;;30.48;24.77;;;;;;;-0.14;69.57;100561.00;10472165;28;20055;-78
2021/01/16 21:17:55;;;;;;;28.33;22.60;;;;;;;-0.04;69.03;100551.97;10471459;28;20048;-74
2021/01/16 21:22:57;;;;;;;29.52;23.52;;;;;;;-0.06;69.46;100559.03;10481086;28;20134;-73
2021/01/16 21:27:58;;;;;;;27.80;21.38;;;;;;;-0.09;70.36;100559.13;10468194;28;20115;-72
2021/01/16 21:33:02;;;;;;;31.77;23.65;;;;;;;-0.11;71.30;100555.69;10501089;28;20553;-70
2021/01/16 21:38:04;;;;;;;30.58;22.33;;;;;;;0.01;71.71;100550.97;10490233;28;20049;-75
2021/01/16 21:43:08;;;;;;;31.83;25.27;;;;;;;-0.15;73.73;100534.88;10467037;28;20558;-74
2021/01/16 21:48:10;;;;;;;36.03;31.42;;;;;;;-0.15;74.07;100520.06;10473385;28;20075;-74
2021/01/16 21:53:11;;;;;;;31.60;23.83;;;;;;;-0.04;74.38;100525.78;10469640;28;20048;-70
2021/01/16 21:58:13;;;;;;;33.53;25.15;;;;;;;0.10;74.07;100516.63;10465948;28;20048;-73
2021/01/16 22:03:14;;;;;;;31.15;24.38;;;;;;;0.11;74.35;100502.66;10502051;28;20055;-71
2021/01/16 22:08:15;;;;;;;34.40;25.75;;;;;;;-0.07;75.06;100525.91;10498021;28;20052;-73
2021/01/16 22:13:16;;;;;;;35.97;26.45;;;;;;;-0.15;75.51;100512.22;10501126;28;20086;-71
2021/01/16 22:18:18;;;;;;;34.95;27.77;;;;;;;-0.13;76.14;100499.94;10472398;28;20103;-75
2021/01/16 22:23:19;;;;;;;32.40;24.23;;;;;;;-0.23;76.98;100496.72;10504943;28;20113;-71
2021/01/16 22:28:20;;;;;;;36.38;25.30;;;;;;;-0.25;77.50;100489.84;10490269;28;20113;-77
2021/01/16 22:33:21;;;;;;;31.55;23.42;;;;;;;-0.06;77.03;100485.75;10481344;28;20079;-74
2021/01/16 22:38:22;;;;;;;31.98;24.48;;;;;;;0.06;77.08;100486.22;10499854;28;20493;-72
2021/01/16 22:43:24;;;;;;;30.95;23.98;;;;;;;0.01;76.86;100477.69;10501992;28;20059;-75
2021/01/16 22:48:25;;;;;;;33.90;25.65;;;;;;;-0.13;77.25;100465.06;10507754;28;20426;-71
2021/01/16 22:53:26;;;;;;;32.65;25.50;;;;;;;-0.05;76.98;100461.25;10486769;28;20133;-73
2021/01/16 22:58:27;;;;;;;33.97;23.98;;;;;;;0.08;76.43;100456.47;10505962;28;20107;-71
2021/01/16 23:03:29;;;;;;;33.35;24.30;;;;;;;0.19;76.03;100457.88;10491068;28;20048;-70
2021/01/16 23:08:31;;;;;;;30.23;22.90;;;;;;;0.17;76.81;100456.16;10497045;28;20044;-72
2021/01/16 23:13:33;;;;;;;32.42;23.40;;;;;;;0.29;75.53;100443.56;10514334;28;20566;-73
2021/01/16 23:18:34;;;;;;;31.45;23.65;;;;;;;0.21;75.65;100433.38;10495358;28;20076;-74
2021/01/16 23:23:35;;;;;;;32.60;23.80;;;;;;;0.21;76.34;100427.25;10503835;28;20040;-72